Aeroporto :
LOGIN :

Iscrizione | Disclaimer

   EN    FR    IT 

 










Sommario :    VFR   VFR Marginale   IFR   IFR Intensivo   IFR Molto Intensivo
Visibilità : 
Base nubi : 
>= 8 km
>= 3000ft
5 / 8 km
1000 / 3000 ft
1500m / 5 km
500 / 1000 ft
800 / 1500m
200 / 500 ft
< 800m
< 200 ft
Simboli :   Temporali  Nebbia  Neve Forte  Precipitazioni Forti  Vento > 20 kt
SIGMETs :   Varie  Temporali  Ghiacco  Turbolenza  Onda orograficha  Ceneri Vulcaniche






- Altitudine del aeroporto : 240 ft
- Codice IATA : VLC


LEVC - Valencia Manises

ULTIMO METAR :
  • 210330Z 29003KT 7000 NSC 06/05 Q1028 NOSIG

METARs OBSOLETI :
  • 210300Z 29005KT 7000 NSC 06/06 Q1028 NOSIG
  • 210230Z 32004KT 8000 NSC 07/06 Q1028 NOSIG
  • 210200Z 30004KT 280V340 CAVOK 07/06 Q1028 NOSIG
  • 210130Z 27002KT CAVOK 07/06 Q1027 NOSIG
  • 210100Z 27001KT CAVOK 08/07 Q1027 NOSIG

TAF TAF LEVC
Valido dal 21 a 00 ore il 22 a 00 ore UTC


202300Z 2100/2124 32003KT 9999 FEW014 TX18/2113Z TN05/2106Z
PROB40
TEMPO 2100/2106 VRB03KT 4000 BR
BECMG 2110/2112 10006KT



MetMap, La meteo Aeronautica in un colpo d'occhio ! - Copyright ORBIFLY Dicembre 2007 - Disclaimer

ORBIFLY MET'MAP TEAM :

Programmazione e sviluppo : Alexandra Zaïnal
Concezione : Baudouin d'Aumeries
Aiuto per la programmazione : Marc-Olivier Méhu
Supporto tecnico e logistico : Manuel Goepfert
Aiuto per la traduzione : Arnaldo La Scala

Contatto : metmap@orbifly.com




FONTI E CREDITI :

   NOAA